.
WxDataArchive / Data Records for 2016-01-23
2016-01-22 January 2016 2016-01-24

Data Records for Saturday, 23 January 2016

Time	Temp	Chill	HIndex	Humid	Dewpt	 Wind 	HiWind	WindDir	Rain 	Barom
-----	----	-----	------	-----	-----	------	------	-------	-----	-----
00:00	21.6	21.6	21.6	62	10.6	1	6	90	0.00	30.159 
00:05	21.4	21.4	21.4	63	10.8	0	4	270	0.00	30.159 
00:10	21.4	21.4	21.4	63	10.8	1	6	68	0.00	30.159 
00:15	21.4	21.4	21.4	63	10.8	1	7	68	0.00	30.156 
00:20	21.3	21.3	21.3	63	10.7	1	5	90	0.00	30.156 
00:25	21.3	21.3	21.3	63	10.7	1	3	90	0.00	30.156 
00:30	21.1	21.1	21.1	64	10.9	1	6	112	0.00	30.151 
00:35	21.1	21.1	21.1	64	10.9	1	6	45	0.00	30.151 
00:40	21.1	21.1	21.1	64	10.9	1	5	315	0.00	30.151 
00:45	21.1	21.1	21.1	64	10.9	1	4	68	0.00	30.145 
00:50	21.0	21.0	21.0	64	10.8	1	3	0	0.00	30.145 
00:55	20.8	20.8	20.8	64	10.6	1	3	0	0.00	30.145 
01:00	20.8	20.8	20.8	64	10.6	0	3	68	0.00	30.142 
01:05	20.8	20.8	20.8	65	10.9	1	3	68	0.00	30.142 
01:10	20.6	20.6	20.6	65	10.7	1	5	112	0.00	30.142 
01:15	20.6	20.6	20.6	65	10.7	0	2	338	0.00	30.134 
01:20	20.5	20.5	20.5	65	10.6	0	4	0	0.00	30.134 
01:25	20.3	20.3	20.3	65	10.4	1	3	338	0.00	30.134 
01:30	20.0	20.0	20.0	66	10.5	1	4	338	0.00	30.135 
01:35	19.9	19.9	19.9	66	10.4	0	3	338	0.00	30.135 
01:40	19.7	19.7	19.7	66	10.2	0	2	338	0.00	30.135 
01:45	19.5	19.5	19.5	66	10.0	0	5	0	0.00	30.130 
01:50	19.4	19.4	19.4	67	10.3	0	3	0	0.00	30.130 
01:55	19.4	19.4	19.4	67	10.3	1	4	0	0.00	30.130 
02:00	19.2	19.2	19.2	67	10.1	0	2	0	0.00	30.132 
02:05	19.1	19.1	19.1	67	10.0	0	1	0	0.00	30.132 
02:10	18.9	18.9	18.9	68	10.1	0	1	0	0.00	30.132 
02:15	18.8	18.8	18.8	68	10.0	0	2	0	0.00	30.132 
02:20	18.8	18.8	18.8	69	10.3	0	3	0	0.00	30.132 
02:25	18.8	18.8	18.8	69	10.3	0	2	0	0.00	30.132 
02:30	18.6	18.6	18.6	69	10.2	0	2	338	0.00	30.132 
02:35	18.6	18.6	18.6	69	10.2	0	2	338	0.00	30.132 
02:40	18.6	18.6	18.6	70	10.5	0	2	338	0.00	30.132 
02:45	18.6	18.6	18.6	70	10.5	0	3	338	0.00	30.130 
02:50	18.6	18.6	18.6	70	10.5	0	2	338	0.00	30.130 
02:55	18.6	18.6	18.6	71	10.8	1	4	270	0.00	30.130 
03:00	18.8	18.8	18.8	71	11.0	0	2	270	0.00	30.134 
03:05	18.6	18.6	18.6	71	10.8	0	3	270	0.00	30.134 
03:10	18.6	18.6	18.6	71	10.8	0	2	270	0.00	30.134 
03:15	18.6	18.6	18.6	72	11.1	0	2	270	0.00	30.133 
03:20	18.4	18.4	18.4	72	10.9	1	3	270	0.00	30.133 
03:25	18.4	18.4	18.4	72	10.9	1	4	270	0.00	30.133 
03:30	18.4	18.4	18.4	73	11.2	0	2	270	0.00	30.136 
03:35	18.3	18.3	18.3	73	11.1	0	1	270	0.00	30.136 
03:40	18.3	18.3	18.3	73	11.1	1	5	270	0.00	30.136 
03:45	18.4	18.4	18.4	73	11.2	1	3	292	0.00	30.134 
03:50	18.3	18.3	18.3	74	11.4	0	2	292	0.00	30.134 
03:55	18.3	18.3	18.3	74	11.4	0	2	292	0.00	30.134 
04:00	18.4	18.4	18.4	75	11.8	1	3	292	0.00	30.135 
04:05	18.6	18.6	18.6	75	12.0	1	2	292	0.00	30.135 
04:10	18.9	18.9	18.9	76	12.6	1	4	315	0.00	30.135 
04:15	19.1	19.1	19.1	76	12.8	0	2	315	0.00	30.129 
04:20	19.2	19.2	19.2	76	12.9	1	4	315	0.00	30.129 
04:25	19.4	19.4	19.4	76	13.1	1	3	315	0.00	30.129 
04:30	19.5	19.5	19.5	76	13.2	0	1	315	0.00	30.120 
04:35	19.7	19.7	19.7	76	13.4	1	4	315	0.00	30.120 
04:40	19.9	19.9	19.9	76	13.6	0	4	292	0.00	30.120 
04:45	20.0	20.0	20.0	76	13.7	1	5	338	0.00	30.113 
04:50	20.2	20.2	20.2	76	13.9	0	2	338	0.00	30.113 
04:55	20.2	20.2	20.2	76	13.9	1	3	338	0.00	30.113 
05:00	20.2	20.2	20.2	76	13.9	1	3	338	0.00	30.117 
05:05	20.3	20.3	20.3	76	14.0	1	4	338	0.00	30.117 
05:10	20.3	20.3	20.3	76	14.0	1	5	315	0.00	30.117 
05:15	20.3	20.3	20.3	77	14.3	1	3	315	0.00	30.117 
05:20	20.5	20.5	20.5	77	14.5	2	4	338	0.00	30.117 
05:25	20.5	20.5	20.5	78	14.8	2	6	292	0.00	30.117 
05:30	20.6	20.6	20.6	78	14.8	1	4	338	0.00	30.116 
05:35	20.6	20.6	20.6	79	15.1	1	5	338	0.00	30.116 
05:40	20.6	20.6	20.6	79	15.1	1	3	338	0.00	30.116 
05:45	20.8	20.8	20.8	80	15.6	1	4	0	0.00	30.119 
05:50	21.0	21.0	21.0	80	15.8	1	5	315	0.00	30.119 
05:55	21.1	21.1	21.1	81	16.2	1	6	315	0.00	30.119 
06:00	21.3	21.3	21.3	81	16.4	1	3	338	0.00	30.119 
06:05	21.4	21.4	21.4	81	16.5	1	3	338	0.00	30.119 
06:10	21.6	21.6	21.6	82	17.0	1	5	315	0.00	30.119 
06:15	21.8	21.8	21.8	82	17.2	2	5	338	0.00	30.123 
06:20	21.9	21.9	21.9	82	17.3	1	3	0	0.00	30.123 
06:25	21.9	21.9	21.9	82	17.3	1	3	0	0.00	30.123 
06:30	22.1	22.1	22.1	82	17.5	0	2	338	0.00	30.128 
06:35	22.1	22.1	22.1	82	17.5	0	2	338	0.00	30.128 
06:40	22.1	22.1	22.1	82	17.5	1	3	338	0.00	30.128 
06:45	22.2	22.2	22.2	82	17.6	1	3	315	0.00	30.135 
06:50	22.2	22.2	22.2	82	17.6	1	4	315	0.00	30.135 
06:55	22.4	22.4	22.4	82	17.8	1	4	338	0.00	30.135 
07:00	22.4	22.4	22.4	82	17.8	1	3	338	0.00	30.136 
07:05	22.5	22.5	22.5	81	17.6	0	4	315	0.00	30.136 
07:10	22.5	22.5	22.5	81	17.6	1	4	292	0.00	30.136 
07:15	22.7	22.7	22.7	81	17.8	1	4	292	0.00	30.147 
07:20	22.7	22.7	22.7	81	17.8	1	3	292	0.00	30.147 
07:25	22.9	22.9	22.9	81	18.0	1	3	292	0.00	30.147 
07:30	22.9	22.9	22.9	81	18.0	1	2	292	0.00	30.149 
07:35	22.9	22.9	22.9	81	18.0	1	5	292	0.00	30.149 
07:40	22.9	22.9	22.9	81	18.0	1	4	292	0.00	30.149 
07:45	23.0	23.0	23.0	81	18.1	1	4	315	0.00	30.150 
07:50	23.0	23.0	23.0	81	18.1	1	3	315	0.00	30.150 
07:55	23.0	23.0	23.0	81	18.1	1	3	315	0.00	30.150 
08:00	23.0	23.0	23.0	81	18.1	1	4	315	0.00	30.148 
08:05	23.2	23.2	23.2	81	18.3	0	2	315	0.00	30.148 
08:10	23.2	23.2	23.2	81	18.3	1	3	315	0.00	30.148 
08:15	23.2	23.2	23.2	81	18.3	1	4	292	0.00	30.148 
08:20	23.3	23.3	23.3	81	18.3	1	3	292	0.00	30.148 
08:25	23.3	23.3	23.3	81	18.3	0	3	292	0.00	30.148 
08:30	23.5	23.5	23.5	81	18.5	1	4	292	0.00	30.145 
08:35	23.5	23.5	23.5	81	18.5	0	2	292	0.00	30.145 
08:40	23.5	23.5	23.5	81	18.5	0	4	315	0.00	30.145 
08:45	23.6	23.6	23.6	81	18.6	0	2	315	0.00	30.150 
08:50	23.6	23.6	23.6	81	18.6	0	2	315	0.00	30.150 
08:55	23.6	23.6	23.6	81	18.6	0	3	315	0.00	30.150 
09:00	23.5	23.5	23.5	81	18.5	1	4	315	0.00	30.161 
09:05	23.6	23.6	23.6	81	18.6	0	3	315	0.00	30.161 
09:10	23.6	23.6	23.6	81	18.6	0	3	315	0.00	30.161 
09:15	23.6	23.6	23.6	81	18.6	1	4	315	0.00	30.163 
09:20	23.8	23.8	23.8	80	18.5	1	6	22	0.00	30.163 
09:25	23.8	23.8	23.8	80	18.5	1	3	292	0.00	30.163 
09:30	23.9	23.9	23.9	80	18.6	1	3	292	0.00	30.164 
09:35	24.1	24.1	24.1	80	18.8	1	5	292	0.00	30.164 
09:40	24.2	24.2	24.2	79	18.6	1	5	315	0.00	30.164 
09:45	24.4	24.4	24.4	78	18.5	1	4	338	0.00	30.165 
09:50	24.7	24.7	24.7	78	18.8	1	4	338	0.00	30.165 
09:55	24.7	24.7	24.7	78	18.8	1	4	338	0.00	30.165 
10:00	24.8	24.8	24.8	77	18.6	1	3	338	0.00	30.166 
10:05	25.1	25.1	25.1	77	18.9	0	4	338	0.00	30.166 
10:10	25.4	25.4	25.4	77	19.2	0	2	338	0.00	30.166 
10:15	25.6	25.6	25.6	76	19.1	1	2	338	0.00	30.156 
10:20	25.8	25.8	25.8	75	19.0	1	3	292	0.00	30.156 
10:25	26.1	26.1	26.1	74	19.0	0	2	292	0.00	30.156 
10:30	26.4	26.4	26.4	72	18.6	1	4	90	0.00	30.149 
10:35	26.6	26.6	26.6	69	17.8	1	5	45	0.00	30.149 
10:40	26.6	26.6	26.6	68	17.5	1	5	0	0.00	30.149 
10:45	26.6	26.6	26.6	66	16.8	1	5	112	0.00	30.151 
10:50	26.9	26.9	26.9	66	17.1	2	7	45	0.00	30.151 
10:55	27.3	27.3	27.3	66	17.5	1	4	112	0.00	30.151 
11:00	27.6	27.6	27.6	64	17.0	1	7	45	0.00	30.148 
11:05	27.6	27.6	27.6	64	17.0	2	7	68	0.00	30.148 
11:10	27.9	27.9	27.9	64	17.3	2	6	90	0.00	30.148 
11:15	28.2	28.2	28.2	64	17.6	2	6	112	0.00	30.149 
11:20	28.4	28.4	28.4	63	17.4	2	5	112	0.00	30.149 
11:25	28.7	28.7	28.7	63	17.7	1	5	68	0.00	30.149 
11:30	28.8	28.8	28.8	63	17.8	0	4	112	0.00	30.146 
11:35	29.0	29.0	29.0	61	17.3	2	8	90	0.00	30.146 
11:40	29.0	29.0	29.0	61	17.3	2	9	112	0.00	30.146 
11:45	28.8	28.8	28.8	62	17.4	1	3	68	0.00	30.142 
11:50	29.0	29.0	29.0	62	17.6	1	5	68	0.00	30.142 
11:55	29.1	29.1	29.1	61	17.4	1	5	0	0.00	30.142 
12:00	29.3	29.3	29.3	60	17.2	1	6	112	0.00	30.139 
12:05	29.4	29.4	29.4	60	17.3	1	5	22	0.00	30.139 
12:10	29.5	29.5	29.5	59	17.0	2	5	45	0.00	30.139 
12:15	29.5	29.5	29.5	58	16.6	1	6	68	0.00	30.135 
12:20	29.4	29.4	29.4	58	16.5	1	4	90	0.00	30.135 
12:25	29.1	29.1	29.1	59	16.6	2	10	90	0.00	30.135 
12:30	29.3	29.3	29.3	59	16.8	1	10	45	0.00	30.131 
12:35	29.5	29.5	29.5	60	17.3	1	7	90	0.00	30.131 
12:40	29.7	29.7	29.7	58	16.8	3	9	68	0.00	30.131 
12:45	30.0	30.0	30.0	58	17.0	1	3	68	0.00	30.125 
12:50	30.1	30.1	30.1	57	16.7	1	4	112	0.00	30.125 
12:55	30.3	30.3	30.3	59	17.7	1	5	22	0.00	30.125 
13:00	30.1	30.1	30.1	57	16.7	1	4	315	0.00	30.118 
13:05	30.1	30.1	30.1	58	17.1	1	5	315	0.00	30.118 
13:10	30.3	30.3	30.3	57	16.9	1	4	338	0.00	30.118 
13:15	30.6	30.6	30.6	58	17.6	1	3	22	0.00	30.120 
13:20	30.7	30.7	30.7	58	17.7	1	4	22	0.00	30.120 
13:25	30.7	30.7	30.7	58	17.7	1	3	22	0.00	30.120 
13:30	30.7	30.7	30.7	57	17.3	2	6	292	0.00	30.116 
13:35	30.7	30.7	30.7	55	16.5	1	5	135	0.00	30.116 
13:40	30.7	30.7	30.7	56	16.9	1	3	90	0.00	30.116 
13:45	30.6	30.6	30.6	56	16.8	1	6	112	0.00	30.112 
13:50	30.7	30.7	30.7	57	17.3	0	3	22	0.00	30.112 
13:55	30.7	30.7	30.7	56	16.9	1	3	22	0.00	30.112 
14:00	31.0	31.0	31.0	56	17.2	1	3	292	0.00	30.102 
14:05	31.2	31.2	31.2	56	17.4	1	4	0	0.00	30.102 
14:10	31.3	31.3	31.3	56	17.4	1	3	0	0.00	30.102 
14:15	31.3	31.3	31.3	57	17.9	0	2	90	0.00	30.097 
14:20	31.2	31.2	31.2	56	17.4	0	4	338	0.00	30.097 
14:25	31.2	31.2	31.2	56	17.4	0	3	338	0.00	30.097 
14:30	31.2	31.2	31.2	55	16.9	1	3	270	0.00	30.098 
14:35	31.2	31.2	31.2	56	17.4	1	4	112	0.00	30.098 
14:40	31.3	31.3	31.3	55	17.0	1	4	45	0.00	30.098 
14:45	31.5	31.5	31.5	55	17.2	1	4	338	0.00	30.095 
14:50	31.5	31.5	31.5	55	17.2	1	3	338	0.00	30.095 
14:55	31.6	31.6	31.6	55	17.3	1	3	292	0.00	30.095 
15:00	31.6	31.6	31.6	54	16.9	1	4	315	0.00	30.094 
15:05	31.6	31.6	31.6	56	17.7	0	3	315	0.00	30.094 
15:10	31.6	31.6	31.6	54	16.9	1	3	315	0.00	30.094 
15:15	31.6	31.6	31.6	53	16.5	1	4	315	0.00	30.098 
15:20	31.8	31.8	31.8	53	16.6	0	3	315	0.00	30.098 
15:25	31.8	31.8	31.8	53	16.6	1	3	315	0.00	30.098 
15:30	31.8	31.8	31.8	53	16.6	0	3	338	0.00	30.095 
15:35	31.9	31.9	31.9	54	17.2	0	2	338	0.00	30.095 
15:40	32.1	32.1	32.1	54	17.4	0	2	338	0.00	30.095 
15:45	32.4	32.4	32.4	54	17.6	1	3	338	0.00	30.101 
15:50	32.4	32.4	32.4	53	17.2	0	2	338	0.00	30.101 
15:55	32.2	32.2	32.2	54	17.4	1	4	338	0.00	30.101 
16:00	32.1	32.1	32.1	54	17.4	1	4	315	0.00	30.102 
16:05	31.9	31.9	31.9	54	17.2	0	2	315	0.00	30.102 
16:10	31.9	31.9	31.9	55	17.6	1	3	315	0.00	30.102 
16:15	31.8	31.8	31.8	55	17.5	1	3	315	0.00	30.098 
16:20	31.8	31.8	31.8	55	17.5	0	1	315	0.00	30.098 
16:25	31.6	31.6	31.6	55	17.3	1	3	315	0.00	30.098 
16:30	31.6	31.6	31.6	56	17.7	0	2	315	0.00	30.101 
16:35	31.5	31.5	31.5	56	17.6	0	2	315	0.00	30.101 
16:40	31.5	31.5	31.5	56	17.6	0	2	315	0.00	30.101 
16:45	31.3	31.3	31.3	56	17.4	0	2	315	0.00	30.106 
16:50	31.3	31.3	31.3	56	17.4	0	3	315	0.00	30.106 
16:55	31.2	31.2	31.2	56	17.4	1	3	315	0.00	30.106 
17:00	31.0	31.0	31.0	57	17.6	0	1	315	0.00	30.104 
17:05	31.0	31.0	31.0	57	17.6	0	2	315	0.00	30.104 
17:10	30.7	30.7	30.7	58	17.7	0	3	315	0.00	30.104 
17:15	30.6	30.6	30.6	58	17.6	0	3	315	0.00	30.112 
17:20	30.6	30.6	30.6	58	17.6	0	0	---	0.00	30.112 
17:25	30.4	30.4	30.4	58	17.4	0	2	315	0.00	30.112 
17:30	30.1	30.1	30.1	59	17.5	0	2	315	0.00	30.115 
17:35	30.0	30.0	30.0	59	17.4	0	2	315	0.00	30.115 
17:40	29.7	29.7	29.7	60	17.5	0	1	315	0.00	30.115 
17:45	29.5	29.5	29.5	60	17.3	0	1	315	0.00	30.115 
17:50	29.4	29.4	29.4	60	17.3	0	1	315	0.00	30.115 
17:55	29.3	29.3	29.3	61	17.5	0	1	315	0.00	30.115 
18:00	29.0	29.0	29.0	62	17.6	0	1	315	0.00	30.119 
18:05	28.8	28.8	28.8	62	17.4	0	1	315	0.00	30.119 
18:10	28.7	28.7	28.7	62	17.4	0	0	---	0.00	30.119 
18:15	28.5	28.5	28.5	63	17.5	0	0	---	0.00	30.125 
18:20	28.4	28.4	28.4	63	17.4	0	0	---	0.00	30.125 
18:25	28.2	28.2	28.2	64	17.6	0	0	---	0.00	30.125 
18:30	27.9	27.9	27.9	64	17.3	0	0	---	0.00	30.127 
18:35	27.8	27.8	27.8	64	17.2	0	0	---	0.00	30.127 
18:40	27.6	27.6	27.6	65	17.4	0	0	---	0.00	30.127 
18:45	27.5	27.5	27.5	65	17.3	0	0	---	0.00	30.130 
18:50	27.3	27.3	27.3	66	17.5	0	1	315	0.00	30.130 
18:55	27.0	27.0	27.0	66	17.2	0	0	---	0.00	30.130 
19:00	26.9	26.9	26.9	66	17.1	0	1	315	0.00	30.133 
19:05	26.7	26.7	26.7	67	17.2	0	0	---	0.00	30.133 
19:10	26.7	26.7	26.7	68	17.6	0	1	315	0.00	30.133 
19:15	26.7	26.7	26.7	69	17.9	0	1	315	0.00	30.134 
19:20	26.6	26.6	26.6	69	17.8	0	1	315	0.00	30.134 
19:25	26.4	26.4	26.4	69	17.6	0	1	315	0.00	30.134 
19:30	26.3	26.3	26.3	70	17.9	0	1	315	0.00	30.133 
19:35	26.0	26.0	26.0	70	17.6	0	1	315	0.00	30.133 
19:40	25.8	25.8	25.8	70	17.4	0	0	---	0.00	30.133 
19:45	25.7	25.7	25.7	71	17.6	0	0	---	0.00	30.131 
19:50	25.4	25.4	25.4	71	17.3	0	0	---	0.00	30.131 
19:55	25.3	25.3	25.3	72	17.6	0	0	---	0.00	30.131 
20:00	25.0	25.0	25.0	72	17.3	0	0	---	0.00	30.133 
20:05	24.8	24.8	24.8	73	17.4	0	0	---	0.00	30.133 
20:10	24.7	24.7	24.7	73	17.3	0	0	---	0.00	30.133 
20:15	24.4	24.4	24.4	73	17.0	0	0	---	0.00	30.130 
20:20	24.1	24.1	24.1	74	17.0	0	0	---	0.00	30.130 
20:25	23.6	23.6	23.6	74	16.6	0	0	---	0.00	30.130 
20:30	23.3	23.3	23.3	74	16.3	0	0	---	0.00	30.132 
20:35	22.9	22.9	22.9	75	16.2	0	0	---	0.00	30.132 
20:40	22.5	22.5	22.5	75	15.8	0	0	---	0.00	30.132 
20:45	22.2	22.2	22.2	76	15.8	0	0	---	0.00	30.133 
20:50	22.2	22.2	22.2	77	16.1	0	0	---	0.00	30.133 
20:55	22.2	22.2	22.2	78	16.4	0	0	---	0.00	30.133 
21:00	22.1	22.1	22.1	78	16.3	0	0	---	0.00	30.135 
21:05	22.1	22.1	22.1	79	16.6	0	0	---	0.00	30.135 
21:10	22.1	22.1	22.1	79	16.6	0	0	---	0.00	30.135 
21:15	21.9	21.9	21.9	79	16.4	0	0	---	0.00	30.132 
21:20	21.9	21.9	21.9	79	16.4	0	0	---	0.00	30.132 
21:25	21.8	21.8	21.8	80	16.6	0	0	---	0.00	30.132 
21:30	21.9	21.9	21.9	81	17.0	0	0	---	0.00	30.120 
21:35	21.9	21.9	21.9	81	17.0	0	0	---	0.00	30.120 
21:40	21.9	21.9	21.9	81	17.0	0	0	---	0.00	30.120 
21:45	21.9	21.9	21.9	81	17.0	0	0	---	0.00	30.120 
21:50	21.8	21.8	21.8	81	16.9	0	0	---	0.00	30.120 
21:55	21.6	21.6	21.6	81	16.7	0	0	---	0.00	30.120 
22:00	21.4	21.4	21.4	81	16.5	0	0	---	0.00	30.119 
22:05	21.3	21.3	21.3	82	16.7	0	0	---	0.00	30.119 
22:10	21.3	21.3	21.3	82	16.7	0	0	---	0.00	30.119 
22:15	21.3	21.3	21.3	82	16.7	0	0	---	0.00	30.119 
22:20	21.1	21.1	21.1	82	16.5	0	0	---	0.00	30.119 
22:25	20.8	20.8	20.8	82	16.2	0	0	---	0.00	30.119 
22:30	20.6	20.6	20.6	82	16.0	0	0	---	0.00	30.115 
22:35	20.5	20.5	20.5	82	15.9	0	0	---	0.00	30.115 
22:40	20.3	20.3	20.3	83	16.0	0	0	---	0.00	30.115 
22:45	20.3	20.3	20.3	83	16.0	0	0	---	0.00	30.114 
22:50	20.2	20.2	20.2	83	15.9	0	0	---	0.00	30.114 
22:55	20.0	20.0	20.0	83	15.7	0	0	---	0.00	30.114 
23:00	20.0	20.0	20.0	84	16.0	0	0	---	0.00	30.112 
23:05	19.9	19.9	19.9	84	15.9	0	0	---	0.00	30.112 
23:10	19.9	19.9	19.9	84	15.9	0	0	---	0.00	30.112 
23:15	19.7	19.7	19.7	84	15.7	0	0	---	0.00	30.104 
23:20	19.7	19.7	19.7	84	15.7	0	0	---	0.00	30.104 
23:25	19.5	19.5	19.5	84	15.5	0	0	---	0.00	30.104 
23:30	19.4	19.4	19.4	85	15.6	0	0	---	0.00	30.101 
23:35	19.2	19.2	19.2	85	15.4	0	0	---	0.00	30.101 
23:40	19.1	19.1	19.1	85	15.3	0	0	---	0.00	30.101 
23:45	19.1	19.1	19.1	85	15.3	0	0	---	0.00	30.106 
23:50	18.9	18.9	18.9	85	15.2	0	0	---	0.00	30.106 
23:55	18.9	18.9	18.9	85	15.2	0	0	---	0.00	30.106 

CoCoRaHS
IN-AL-39
A2 Web Hosting
Creative Commons License
GoDaddy
search engine by freefind advanced

loaded 2018-11-20 06:11:51 • last modified 2010-11-18 10:43:29
Privacy PolicyDisclaimer
• wx.awcolley.com is powered by PmWiki v.2002016 •
• all content (unless otherwise noted) © 2018 A W Colley